Time;durP1;ratioP1;P1;durP2;ratioP2;P2;SDS_P1;SDS_P2;PMS_P1;PMS_P2;Temp;Humidity;BMP_temperature;BMP_pressure;BME280_temperature;BME280_humidity;BME280_pressure;Samples;Min_cycle;Max_cycle;Signal;HPM_P1;HPM_P2
2022/06/02 08:08:53;;;;;;;13.15;10.38;;;13.70;99.90;;;;;;5090988;28;20533;-71
2022/06/02 08:12:05;;;;;;;15.82;10.98;;;13.90;99.90;;;;;;5089680;28;20211;-72
2022/06/02 08:14:52;;;;;;;11.93;10.43;;;14.00;99.90;;;;;;5090889;28;20175;-71
2022/06/02 08:17:59;;;;;;;11.88;10.65;;;14.00;99.90;;;;;;5090832;28;20179;-71
2022/06/02 08:20:42;;;;;;;13.10;10.13;;;14.00;99.90;;;;;;5082004;28;20625;-72
2022/06/02 08:23:23;;;;;;;12.27;11.07;;;14.00;99.90;;;;;;5090625;28;20723;-71
2022/06/02 08:25:55;;;;;;;11.00;9.45;;;14.20;99.90;;;;;;5090702;28;20232;-71
2022/06/02 08:28:20;;;;;;;9.38;8.57;;;14.30;99.90;;;;;;5090497;28;20191;-71
2022/06/02 08:31:07;;;;;;;10.13;9.10;;;14.30;99.90;;;;;;5090515;28;20307;-72
2022/06/02 08:33:57;;;;;;;9.70;8.80;;;14.30;99.90;;;;;;5089331;28;20178;-71
2022/06/02 08:36:30;;;;;;;12.85;8.93;;;14.30;99.90;;;;;;5090544;28;20191;-72
2022/06/02 08:39:13;;;;;;;10.07;8.63;;;14.30;99.90;;;;;;5089091;28;20174;-72
2022/06/02 08:41:57;;;;;;;9.65;8.68;;;14.30;99.90;;;;;;5089112;28;20175;-71
2022/06/02 08:44:44;;;;;;;9.38;8.48;;;14.30;99.90;;;;;;5090362;28;20625;-71
2022/06/02 08:47:39;;;;;;;13.05;8.82;;;14.40;99.90;;;;;;5090173;28;20204;-71
2022/06/02 08:50:26;;;;;;;9.38;8.45;;;14.50;99.90;;;;;;5088942;28;20259;-72
2022/06/02 08:53:19;;;;;;;8.82;8.13;;;14.50;99.90;;;;;;5090147;28;20168;-72
2022/06/02 08:56:06;;;;;;;9.50;8.43;;;14.50;99.90;;;;;;5090074;28;20175;-71
2022/06/02 08:59:07;;;;;;;10.10;8.80;;;14.50;99.90;;;;;;5088779;28;20172;-71
2022/06/02 09:01:45;;;;;;;11.10;9.10;;;14.40;99.90;;;;;;5090040;28;20156;-71
2022/06/02 09:04:19;;;;;;;9.10;8.27;;;14.40;99.90;;;;;;5089944;28;20164;-71
2022/06/02 09:07:23;;;;;;;9.63;8.73;;;14.30;99.90;;;;;;5089635;28;20226;-71
2022/06/02 09:10:20;;;;;;;9.57;8.57;;;14.20;99.90;;;;;;5089866;28;20633;-71
2022/06/02 09:12:53;;;;;;;10.75;7.80;;;14.10;99.90;;;;;;5088896;28;20184;-71
2022/06/02 09:15:49;;;;;;;9.52;8.57;;;14.20;99.90;;;;;;5089745;28;20530;-72
2022/06/02 09:18:18;;;;;;;8.75;7.95;;;14.10;99.90;;;;;;5085611;28;20164;-71
2022/06/02 09:20:49;;;;;;;9.45;8.60;;;14.00;99.90;;;;;;5076017;28;20180;-71
2022/06/02 09:23:36;;;;;;;9.15;8.35;;;14.00;99.90;;;;;;5076017;28;20215;-71
2022/06/02 09:26:52;;;;;;;8.88;7.95;;;14.10;99.90;;;;;;5076007;28;20641;-71
2022/06/02 09:29:23;;;;;;;6.35;5.90;;;14.10;99.90;;;;;;5074967;28;20194;-71
2022/06/02 09:32:00;;;;;;;7.30;6.70;;;14.20;99.90;;;;;;5075899;28;20160;-71
2022/06/02 09:35:01;;;;;;;6.22;5.82;;;14.30;99.90;;;;;;5075821;28;20184;-71
2022/06/02 09:37:54;;;;;;;6.93;6.47;;;14.40;99.90;;;;;;5075789;28;20168;-71
2022/06/02 09:40:38;;;;;;;7.25;6.65;;;14.50;99.90;;;;;;5075710;28;20256;-71
2022/06/02 09:43:32;;;;;;;7.18;6.65;;;14.60;99.90;;;;;;5075715;28;20170;-72
2022/06/02 09:46:07;;;;;;;6.18;5.68;;;14.60;99.90;;;;;;5074346;28;20172;-71
2022/06/02 09:48:47;;;;;;;6.32;5.82;;;14.70;99.90;;;;;;5075571;28;20667;-72
2022/06/02 09:51:34;;;;;;;9.38;5.70;;;14.70;99.90;;;;;;5074285;28;20590;-71
2022/06/02 09:54:14;;;;;;;6.07;5.47;;;14.70;99.90;;;;;;5075418;28;20278;-71
2022/06/02 09:57:55;;;;;;;5.07;4.72;;;14.80;99.90;;;;;;5075486;28;20175;-72
2022/06/02 10:00:11;;;;;;;5.40;4.90;;;14.70;99.90;;;;;;5075287;28;20172;-71
2022/06/02 10:02:52;;;;;;;5.13;4.57;;;14.80;99.90;;;;;;5075377;28;20171;-71
2022/06/02 10:05:38;;;;;;;4.93;4.57;;;14.90;99.90;;;;;;5075305;28;20713;-71
2022/06/02 10:08:38;;;;;;;4.47;4.05;;;15.00;99.90;;;;;;5075089;28;20257;-72
2022/06/02 10:11:10;;;;;;;5.03;4.53;;;15.10;99.90;;;;;;5073883;28;20172;-72
2022/06/02 10:14:15;;;;;;;4.65;4.30;;;15.30;99.90;;;;;;5075148;28;20221;-71
2022/06/02 10:16:55;;;;;;;4.60;4.22;;;15.40;99.90;;;;;;5075083;28;20547;-72
2022/06/02 10:19:21;;;;;;;3.70;3.50;;;15.50;99.90;;;;;;5075030;28;20164;-72
2022/06/02 10:22:12;;;;;;;3.95;3.65;;;15.70;99.90;;;;;;5074852;28;20603;-72
2022/06/02 10:25:02;;;;;;;4.10;3.78;;;15.90;99.90;;;;;;5073674;28;20272;-71
2022/06/02 10:27:51;;;;;;;3.50;3.30;;;15.90;99.90;;;;;;5074729;28;20195;-71
2022/06/02 10:30:28;;;;;;;3.60;3.45;;;15.90;99.90;;;;;;5073738;28;20539;-71
2022/06/02 10:33:03;;;;;;;3.85;3.55;;;16.00;99.90;;;;;;5074766;28;20172;-72
2022/06/02 10:35:46;;;;;;;3.67;3.47;;;16.20;99.90;;;;;;5074642;28;20164;-72
2022/06/02 10:38:29;;;;;;;3.22;3.03;;;16.40;99.90;;;;;;5074568;28;20193;-71
2022/06/02 10:41:31;;;;;;;3.45;3.25;;;16.60;99.90;;;;;;5074534;28;20173;-72
2022/06/02 10:44:10;;;;;;;4.22;3.83;;;16.80;99.90;;;;;;5074472;28;20176;-72
2022/06/02 10:47:03;;;;;;;3.75;3.55;;;16.90;99.90;;;;;;5074366;28;20230;-71
2022/06/02 10:49:57;;;;;;;3.33;3.13;;;17.00;99.90;;;;;;5073113;28;20172;-71
2022/06/02 10:53:00;;;;;;;3.15;3.05;;;17.30;99.90;;;;;;5074290;28;20225;-72
2022/06/02 10:55:49;;;;;;;3.42;3.13;;;17.40;99.90;;;;;;5074262;28;20649;-72
2022/06/02 10:59:03;;;;;;;3.00;2.80;;;17.60;99.90;;;;;;5074246;28;20176;-72
2022/06/02 11:01:43;;;;;;;5.30;4.28;;;17.60;99.90;;;;;;5073726;28;20180;-72
2022/06/02 11:04:47;;;;;;;3.20;3.00;;;17.70;99.90;;;;;;5074046;28;20213;-72
2022/06/02 11:07:27;;;;;;;3.10;2.90;;;17.90;99.90;;;;;;5073698;28;20222;-71
2022/06/02 11:10:01;;;;;;;3.20;3.00;;;17.90;99.90;;;;;;5072706;28;20212;-71
2022/06/02 11:13:09;;;;;;;3.40;2.70;;;18.10;99.90;;;;;;5072429;28;20531;-72
2022/06/02 11:15:43;;;;;;;3.08;2.97;;;18.10;99.90;;;;;;5073909;28;20174;-72
2022/06/02 11:18:30;;;;;;;3.67;3.38;;;18.40;99.90;;;;;;5073807;28;20200;-72
2022/06/02 11:21:21;;;;;;;2.60;2.50;;;18.50;99.90;;;;;;5072470;28;20171;-71
2022/06/02 11:24:15;;;;;;;3.10;2.90;;;18.60;99.90;;;;;;5072306;28;20562;-72
2022/06/02 11:26:55;;;;;;;4.82;2.60;;;18.80;99.90;;;;;;5073529;28;20279;-72
2022/06/02 11:29:47;;;;;;;4.22;2.65;;;18.80;99.90;;;;;;5073576;28;20172;-72
2022/06/02 11:32:18;;;;;;;4.75;2.42;;;18.90;99.90;;;;;;5073652;28;20251;-72
2022/06/02 11:34:52;;;;;;;2.53;2.42;;;19.00;99.90;;;;;;5072339;28;20172;-72
2022/06/02 11:37:33;;;;;;;3.08;2.80;;;19.10;99.90;;;;;;5073557;28;20194;-72
2022/06/02 11:40:13;;;;;;;2.75;2.65;;;19.20;99.90;;;;;;5073547;28;20164;-72
2022/06/02 11:42:57;;;;;;;2.70;2.60;;;19.30;99.90;;;;;;5071976;28;20176;-72
2022/06/02 11:45:47;;;;;;;2.83;2.72;;;19.20;99.90;;;;;;5073543;28;20218;-72
2022/06/02 11:48:46;;;;;;;2.80;2.70;;;19.20;99.90;;;;;;5073385;28;20210;-71
2022/06/02 11:51:43;;;;;;;3.00;2.80;;;19.20;99.90;;;;;;5072128;28;20588;-72
2022/06/02 11:54:47;;;;;;;3.10;2.72;;;19.30;99.90;;;;;;5073382;28;20171;-72
2022/06/02 11:57:52;;;;;;;2.38;2.28;;;19.20;99.90;;;;;;5073350;28;20163;-72
2022/06/02 12:00:57;;;;;;;2.38;2.28;;;19.10;99.90;;;;;;5072476;28;20183;-71
2022/06/02 12:03:45;;;;;;;3.30;2.50;;;19.20;99.90;;;;;;5073312;28;20167;-72
2022/06/02 12:06:36;;;;;;;2.55;2.42;;;19.30;99.90;;;;;;5073140;28;20175;-72
2022/06/02 12:09:30;;;;;;;3.15;2.90;;;19.10;99.90;;;;;;5073180;28;20645;-72
2022/06/02 12:12:30;;;;;;;2.47;2.38;;;19.00;99.90;;;;;;5071979;28;20211;-72
2022/06/02 12:15:01;;;;;;;2.60;2.50;;;19.10;99.90;;;;;;5073245;28;20174;-72
2022/06/02 12:17:56;;;;;;;3.03;2.75;;;19.20;99.90;;;;;;5073208;28;20182;-72
2022/06/02 12:20:49;;;;;;;2.70;2.50;;;19.30;99.90;;;;;;5073200;28;20171;-72
2022/06/02 12:23:19;;;;;;;2.75;2.55;;;19.20;99.90;;;;;;5073046;28;20648;-71
2022/06/02 12:26:28;;;;;;;2.55;2.35;;;19.40;99.90;;;;;;5073108;28;20558;-72
2022/06/02 12:29:10;;;;;;;3.30;3.10;;;19.60;99.90;;;;;;5072091;28;20215;-72
2022/06/02 12:31:50;;;;;;;3.97;2.25;;;19.90;99.90;;;;;;5073062;28;20629;-72
2022/06/02 12:34:37;;;;;;;6.95;2.63;;;20.10;99.90;;;;;;5072926;28;20197;-72
2022/06/02 12:37:17;;;;;;;3.22;2.70;;;20.30;99.90;;;;;;5072958;28;20182;-72
2022/06/02 12:40:08;;;;;;;2.40;2.30;;;20.30;99.90;;;;;;5072975;28;20633;-72
2022/06/02 12:43:04;;;;;;;2.70;2.50;;;20.40;99.90;;;;;;5068449;28;20215;-71
2022/06/02 12:45:46;;;;;;;2.50;2.30;;;20.70;99.90;;;;;;5072830;28;20172;-72
2022/06/02 12:48:24;;;;;;;1.75;1.65;;;20.90;99.90;;;;;;5072857;28;20203;-72
2022/06/02 12:51:06;;;;;;;2.00;1.90;;;21.00;99.90;;;;;;5072763;28;20625;-72
2022/06/02 12:53:40;;;;;;;1.92;1.88;;;21.00;99.90;;;;;;5073456;28;20178;-72
2022/06/02 12:56:21;;;;;;;2.22;2.13;;;21.10;99.90;;;;;;5076531;28;20181;-72
2022/06/02 12:59:06;;;;;;;2.30;2.08;;;21.20;99.90;;;;;;5076484;28;20167;-72
2022/06/02 13:01:51;;;;;;;1.90;1.80;;;21.60;99.90;;;;;;5076268;28;20191;-72
2022/06/02 13:04:31;;;;;;;2.00;1.90;;;21.80;99.90;;;;;;5076407;28;20168;-72
2022/06/02 13:07:14;;;;;;;1.80;1.77;;;22.10;99.90;;;;;;5076168;28;20223;-72
2022/06/02 13:09:46;;;;;;;3.88;2.70;;;22.20;99.90;;;;;;5076313;28;20168;-72
2022/06/02 13:12:20;;;;;;;3.60;1.90;;;22.30;99.90;;;;;;5076510;28;20180;-72
2022/06/02 13:15:23;;;;;;;1.73;1.70;;;22.40;99.90;;;;;;5076250;28;20160;-72
2022/06/02 13:18:06;;;;;;;2.50;2.40;;;22.40;99.90;;;;;;5076175;28;20179;-72
2022/06/02 13:21:05;;;;;;;2.10;2.00;;;22.40;99.90;;;;;;5076138;28;20164;-72
2022/06/02 13:24:02;;;;;;;3.20;1.67;;;22.10;99.90;;;;;;5074720;28;20188;-72
2022/06/02 13:27:06;;;;;;;1.90;1.80;;;21.80;99.90;;;;;;5076398;28;20520;-72
2022/06/02 13:30:03;;;;;;;1.88;1.77;;;21.80;99.90;;;;;;5076006;28;20163;-72
2022/06/02 13:32:44;;;;;;;2.08;1.80;;;21.80;99.90;;;;;;5075931;28;20243;-72
2022/06/02 13:35:19;;;;;;;1.58;1.52;;;22.10;99.90;;;;;;5075891;28;20164;-72
2022/06/02 13:38:13;;;;;;;4.50;1.60;;;22.30;99.90;;;;;;5076002;28;20199;-72
2022/06/02 13:40:45;;;;;;;1.45;1.45;;;22.30;99.90;;;;;;5074494;28;20547;-72
2022/06/02 13:43:34;;;;;;;2.88;1.52;;;22.20;99.90;;;;;;5075713;28;20588;-72
2022/06/02 13:46:25;;;;;;;1.60;1.55;;;22.30;99.90;;;;;;5075839;28;20191;-72
2022/06/02 13:49:03;;;;;;;1.60;1.55;;;22.60;99.90;;;;;;5075640;28;20172;-72
2022/06/02 13:51:53;;;;;;;1.30;1.30;;;22.50;99.90;;;;;;5075610;28;20524;-72
2022/06/02 13:57:42;;;;;;;2.88;1.92;;;22.70;99.90;;;;;;5075463;28;20222;-72
2022/06/02 14:00:44;;;;;;;1.90;1.80;;;23.00;99.90;;;;;;5074165;28;20176;-72
2022/06/02 14:03:27;;;;;;;2.25;1.55;;;23.20;99.90;;;;;;5075369;28;20553;-72
2022/06/02 14:06:05;;;;;;;2.08;1.90;;;23.30;99.90;;;;;;5075212;28;20571;-72
2022/06/02 14:08:49;;;;;;;1.45;1.45;;;23.20;99.90;;;;;;5073803;28;20211;-72
2022/06/02 14:11:14;;;;;;;1.58;1.58;;;23.40;99.90;;;;;;5075308;28;20164;-72
2022/06/02 14:14:17;;;;;;;1.90;1.80;;;23.70;99.90;;;;;;5075204;28;20221;-72
2022/06/02 14:16:55;;;;;;;2.38;1.85;;;23.80;99.90;;;;;;5073800;28;20177;-72
2022/06/02 14:19:50;;;;;;;2.42;1.50;;;23.30;99.90;;;;;;5075072;28;20191;-72
2022/06/02 14:22:41;;;;;;;2.97;1.85;;;23.10;99.90;;;;;;5074975;28;20183;-72
2022/06/02 14:25:13;;;;;;;1.80;1.70;;;23.00;99.90;;;;;;5074966;28;20172;-72
2022/06/02 14:27:39;;;;;;;1.65;1.55;;;23.10;99.90;;;;;;5074812;28;20230;-72
2022/06/02 14:30:15;;;;;;;1.45;1.42;;;23.40;99.90;;;;;;5074979;28;20195;-72
2022/06/02 14:33:10;;;;;;;1.42;1.33;;;23.30;99.90;;;;;;5074807;28;20237;-72
2022/06/02 14:35:59;;;;;;;1.80;1.70;;;23.10;99.90;;;;;;5074781;28;20175;-72
2022/06/02 14:38:33;;;;;;;1.40;1.40;;;23.30;99.90;;;;;;5074652;28;20172;-72
2022/06/02 14:41:01;;;;;;;1.60;1.60;;;23.20;99.90;;;;;;5074560;28;20693;-71
2022/06/02 14:44:01;;;;;;;2.03;1.92;;;23.20;99.90;;;;;;5074522;28;20530;-72
2022/06/02 14:46:55;;;;;;;1.90;1.80;;;23.40;99.90;;;;;;5074400;28;20167;-72
2022/06/02 14:50:08;;;;;;;1.63;1.60;;;23.70;99.90;;;;;;5074498;28;20167;-72
2022/06/02 14:52:42;;;;;;;2.05;1.95;;;23.60;99.90;;;;;;5073904;28;20183;-72
2022/06/02 14:55:12;;;;;;;1.70;1.60;;;23.50;99.90;;;;;;5074332;28;20175;-72
2022/06/02 14:57:52;;;;;;;1.50;1.50;;;23.60;99.90;;;;;;5074308;28;20183;-72
2022/06/02 15:00:37;;;;;;;3.00;1.98;;;23.80;99.90;;;;;;5074184;28;20170;-72
2022/06/02 15:03:33;;;;;;;1.90;1.80;;;24.10;99.90;;;;;;5074192;28;20641;-72
2022/06/02 15:06:01;;;;;;;2.45;1.77;;;24.10;99.90;;;;;;5074189;28;20176;-72
2022/06/02 15:08:38;;;;;;;2.25;1.85;;;23.80;99.90;;;;;;5073726;28;20751;-72
2022/06/02 15:11:32;;;;;;;2.28;1.95;;;24.00;99.90;;;;;;5073957;28;20163;-72
2022/06/02 15:14:30;;;;;;;1.77;1.67;;;24.20;99.90;;;;;;5072735;28;20172;-72
2022/06/02 15:17:46;;;;;;;1.20;1.20;;;24.40;99.90;;;;;;5072476;28;20184;-72
2022/06/02 15:20:25;;;;;;;1.83;1.63;;;24.60;99.90;;;;;;5072934;28;20244;-72
2022/06/02 15:23:24;;;;;;;2.78;1.90;;;24.60;99.90;;;;;;5072476;28;20598;-72
2022/06/02 15:26:04;;;;;;;1.67;1.58;;;24.50;99.90;;;;;;5073770;28;20168;-72
2022/06/02 15:29:16;;;;;;;1.60;1.50;;;24.50;99.90;;;;;;5073690;28;20583;-72
2022/06/02 15:32:00;;;;;;;1.77;1.67;;;24.60;99.90;;;;;;5073730;28;20247;-72
2022/06/02 15:34:45;;;;;;;1.70;1.60;;;24.70;99.90;;;;;;5073685;28;20175;-73
2022/06/02 15:37:23;;;;;;;1.63;1.52;;;24.80;99.90;;;;;;5073654;28;20168;-72
2022/06/02 15:40:25;;;;;;;1.20;1.20;;;25.00;99.90;;;;;;5073529;28;20199;-72
2022/06/02 15:43:32;;;;;;;1.50;1.40;;;25.10;99.90;;;;;;5072220;28;20195;-72
2022/06/02 15:46:22;;;;;;;1.20;1.20;;;25.00;99.90;;;;;;5073499;28;20179;-72
2022/06/02 15:48:57;;;;;;;1.63;1.58;;;25.20;99.90;;;;;;5073459;28;20248;-72
2022/06/02 15:51:39;;;;;;;1.20;1.20;;;25.30;99.90;;;;;;5073465;28;20220;-72
2022/06/02 15:54:31;;;;;;;1.98;1.17;;;25.40;99.90;;;;;;5073485;28;20160;-72
2022/06/02 15:57:03;;;;;;;4.93;1.20;;;25.50;99.90;;;;;;5073480;28;20199;-72
2022/06/02 16:00:00;;;;;;;2.88;1.50;;;25.20;99.90;;;;;;5073372;28;20164;-72
2022/06/02 16:02:54;;;;;;;1.40;1.40;;;25.00;99.90;;;;;;5073418;28;20160;-72
2022/06/02 16:05:46;;;;;;;2.25;1.52;;;25.20;99.90;;;;;;5073494;28;20581;-72
2022/06/02 16:08:14;;;;;;;1.55;1.55;;;25.50;99.90;;;;;;5072125;28;20223;-72
2022/06/02 16:13:43;;;;;;;1.70;1.60;;;25.60;99.90;;;;;;5073198;28;20178;-72
2022/06/02 16:16:40;;;;;;;1.95;1.63;;;25.60;99.90;;;;;;5073104;28;20606;-72
2022/06/02 16:19:14;;;;;;;1.27;1.27;;;25.50;99.90;;;;;;5073084;28;20660;-72
2022/06/02 16:21:59;;;;;;;2.25;1.30;;;25.60;99.90;;;;;;5073058;28;20191;-72
2022/06/02 16:24:44;;;;;;;1.80;1.70;;;25.50;99.90;;;;;;5073027;28;20179;-72
2022/06/02 16:27:13;;;;;;;1.48;1.38;;;25.60;99.90;;;;;;5067868;28;20214;-72
2022/06/02 16:30:05;;;;;;;1.70;1.30;;;25.90;99.90;;;;;;5075798;28;20534;-72
2022/06/02 16:33:08;;;;;;;1.60;1.30;;;25.90;99.90;;;;;;5075986;28;20577;-72
2022/06/02 16:35:40;;;;;;;1.17;1.17;;;25.80;99.90;;;;;;5076968;28;20206;-72
2022/06/02 16:38:18;;;;;;;1.58;1.48;;;25.80;99.90;;;;;;5075522;28;20660;-72
2022/06/02 16:41:09;;;;;;;2.45;1.77;;;25.80;99.90;;;;;;5076867;28;20171;-72
2022/06/02 16:43:44;;;;;;;1.77;1.67;;;25.80;99.90;;;;;;5076319;28;20229;-72
2022/06/02 16:46:15;;;;;;;1.30;1.20;;;25.70;99.90;;;;;;5076760;28;20246;-72
2022/06/02 16:48:41;;;;;;;1.60;1.50;;;25.70;99.90;;;;;;5076740;28;20168;-72
2022/06/02 16:51:27;;;;;;;1.10;1.10;;;25.60;99.90;;;;;;5076887;28;20178;-72
2022/06/02 16:54:08;;;;;;;1.20;1.20;;;25.40;99.90;;;;;;5076700;28;20167;-72
2022/06/02 16:56:34;;;;;;;1.42;1.33;;;25.20;99.90;;;;;;5076578;28;20175;-72
2022/06/02 16:58:59;;;;;;;1.52;1.40;;;25.40;99.90;;;;;;5076515;28;20167;-72
2022/06/02 17:01:45;;;;;;;1.50;1.40;;;25.20;99.90;;;;;;5076549;28;20247;-72
2022/06/02 17:04:30;;;;;;;1.40;1.40;;;25.40;99.90;;;;;;5076399;28;20171;-72
2022/06/02 17:07:24;;;;;;;1.58;1.48;;;25.40;99.90;;;;;;5076198;28;20571;-72
2022/06/02 17:10:15;;;;;;;1.83;1.25;;;25.20;99.90;;;;;;5076311;28;20171;-72
2022/06/02 17:12:56;;;;;;;1.00;1.00;;;25.20;99.90;;;;;;5076289;28;20175;-72
2022/06/02 17:15:53;;;;;;;2.17;1.33;;;25.30;99.90;;;;;;5076259;28;20190;-72
2022/06/02 17:18:30;;;;;;;1.30;1.20;;;25.40;99.90;;;;;;5076105;28;20192;-72
2022/06/02 17:21:01;;;;;;;1.00;1.00;;;25.50;99.90;;;;;;5076187;28;20189;-72
2022/06/02 17:24:17;;;;;;;1.15;1.15;;;25.30;99.90;;;;;;5075999;28;20682;-72
2022/06/02 17:27:11;;;;;;;1.55;1.45;;;25.30;99.90;;;;;;5057237;28;20546;-72
2022/06/02 17:29:44;;;;;;;1.42;1.33;;;25.30;99.90;;;;;;5073912;28;20180;-72
2022/06/02 17:32:40;;;;;;;1.42;1.33;;;25.20;99.90;;;;;;5075592;28;20199;-72
2022/06/02 17:35:28;;;;;;;1.83;1.20;;;25.10;99.90;;;;;;5074884;28;20254;-72
2022/06/02 17:38:15;;;;;;;2.00;1.70;;;24.80;99.90;;;;;;5075806;28;20187;-72
2022/06/02 17:41:10;;;;;;;1.42;1.33;;;24.60;99.90;;;;;;5074599;28;20237;-72
2022/06/02 17:43:54;;;;;;;1.52;1.42;;;24.50;99.90;;;;;;5076012;28;20164;-72
2022/06/02 17:46:57;;;;;;;1.27;1.27;;;24.40;99.90;;;;;;5075674;28;20192;-72
2022/06/02 17:49:28;;;;;;;1.05;1.05;;;24.30;99.90;;;;;;5075554;28;20532;-72
2022/06/02 17:52:19;;;;;;;1.05;1.05;;;24.20;99.90;;;;;;5075638;28;20636;-72
2022/06/02 17:55:07;;;;;;;3.53;1.20;;;24.30;99.90;;;;;;5075608;28;20171;-72
2022/06/02 17:57:38;;;;;;;1.30;1.30;;;24.20;99.90;;;;;;5075538;28;20192;-72
2022/06/02 18:00:34;;;;;;;1.20;1.10;;;24.20;99.90;;;;;;5075422;28;20688;-72
2022/06/02 18:03:55;;;;;;;2.55;1.30;;;24.00;99.90;;;;;;5075449;28;20209;-72
2022/06/02 18:06:39;;;;;;;2.65;1.42;;;23.90;99.90;;;;;;5073618;28;20249;-72
2022/06/02 18:09:35;;;;;;;1.40;1.30;;;23.80;99.90;;;;;;5074227;28;20176;-72
2022/06/02 18:12:42;;;;;;;1.63;1.52;;;23.60;99.90;;;;;;5075227;28;20168;-72
2022/06/02 18:15:49;;;;;;;1.65;1.15;;;23.50;99.90;;;;;;5074940;28;20232;-72
2022/06/02 18:18:33;;;;;;;1.20;1.20;;;23.30;99.90;;;;;;5070734;28;20200;-72
2022/06/02 18:21:13;;;;;;;2.03;1.33;;;23.10;99.90;;;;;;5073968;28;20594;-72
2022/06/02 18:24:18;;;;;;;1.17;1.17;;;23.00;99.90;;;;;;5073689;28;20267;-72
2022/06/02 18:26:56;;;;;;;1.45;1.20;;;22.90;99.90;;;;;;5074609;28;20191;-72
2022/06/02 18:29:46;;;;;;;1.20;1.20;;;22.70;99.90;;;;;;5074836;28;20164;-72
2022/06/02 18:32:34;;;;;;;1.88;1.13;;;22.70;99.90;;;;;;5074829;28;20195;-72
2022/06/02 18:35:08;;;;;;;1.67;1.58;;;22.60;99.90;;;;;;5074703;28;20637;-72
2022/06/02 18:37:58;;;;;;;1.08;1.08;;;22.70;99.90;;;;;;5074654;28;20197;-72
2022/06/02 18:40:51;;;;;;;1.10;1.10;;;22.80;99.90;;;;;;5074672;28;20171;-72
2022/06/02 18:43:54;;;;;;;1.40;1.30;;;22.90;99.90;;;;;;5074659;28;20663;-72
2022/06/02 18:46:52;;;;;;;1.38;1.23;;;23.00;99.90;;;;;;5074519;28;20246;-72
2022/06/02 18:49:39;;;;;;;1.05;1.05;;;23.10;99.90;;;;;;5073150;28;20180;-72
2022/06/02 18:52:40;;;;;;;2.20;1.38;;;23.10;99.90;;;;;;5073629;28;20621;-72
2022/06/02 18:55:24;;;;;;;1.10;1.10;;;23.00;99.90;;;;;;5074380;28;20167;-72
2022/06/02 18:58:20;;;;;;;1.50;1.40;;;23.00;99.90;;;;;;5074200;28;20198;-72
2022/06/02 19:01:23;;;;;;;1.38;1.30;;;22.80;99.90;;;;;;5074248;28;20163;-72
2022/06/02 19:04:18;;;;;;;1.10;1.10;;;22.60;99.90;;;;;;5074117;28;20499;-72
2022/06/02 19:16:29;;;;;;;1.98;1.38;;;21.00;99.90;;;;;;5073091;28;20222;-72
2022/06/02 19:19:19;;;;;;;1.60;1.50;;;20.30;99.90;;;;;;5062464;28;20596;-72
2022/06/02 19:22:11;;;;;;;1.40;1.30;;;19.70;99.90;;;;;;5072509;28;20200;-72
